createdAt,value
2018-12-26T00:00:10.638Z,17.87
2018-12-26T00:02:41.181Z,16.93
2018-12-26T00:05:10.528Z,15.17
2018-12-26T00:07:40.329Z,14.30
2018-12-26T00:10:09.654Z,15.53
2018-12-26T00:12:39.014Z,18.80
2018-12-26T00:15:08.367Z,15.93
2018-12-26T00:17:37.708Z,13.70
2018-12-26T00:20:07.220Z,16.67
2018-12-26T00:22:38.238Z,12.70
2018-12-26T00:25:07.848Z,12.33
2018-12-26T00:27:37.174Z,15.67
2018-12-26T00:30:06.602Z,17.80
2018-12-26T00:32:35.950Z,16.07
2018-12-26T00:35:05.359Z,12.40
2018-12-26T00:37:34.719Z,12.47
2018-12-26T00:40:04.431Z,11.80
2018-12-26T00:42:33.788Z,14.70
2018-12-26T00:45:03.125Z,10.97
2018-12-26T00:47:32.484Z,15.00
2018-12-26T00:50:02.059Z,12.70
2018-12-26T00:52:31.654Z,15.30
2018-12-26T00:55:01.008Z,10.60
2018-12-26T00:57:30.367Z,16.13
2018-12-26T00:59:59.714Z,14.30
2018-12-26T01:02:29.069Z,16.00
2018-12-26T01:04:58.404Z,11.80
2018-12-26T01:07:27.759Z,8.00
2018-12-26T01:09:58.887Z,15.63
2018-12-26T01:12:28.484Z,12.30
2018-12-26T01:14:58.076Z,9.17
2018-12-26T01:17:27.415Z,13.43
2018-12-26T01:19:59.446Z,9.50
2018-12-26T01:22:29.036Z,15.27
2018-12-26T01:24:58.411Z,16.20
2018-12-26T01:27:27.992Z,14.87
2018-12-26T01:29:59.518Z,15.00
2018-12-26T01:32:28.863Z,13.23
2018-12-26T01:34:58.215Z,9.00
2018-12-26T01:37:27.790Z,7.97
2018-12-26T01:39:57.149Z,13.23
2018-12-26T01:42:26.489Z,13.27
2018-12-26T01:44:55.855Z,14.20
2018-12-26T01:47:25.185Z,12.30
2018-12-26T01:49:54.541Z,13.83
2018-12-26T01:52:23.889Z,9.50
2018-12-26T01:54:53.253Z,12.00
2018-12-26T01:57:22.593Z,10.97
2018-12-26T01:59:51.953Z,13.40
2018-12-26T02:02:21.290Z,12.50
2018-12-26T02:04:50.727Z,14.83
2018-12-26T02:07:20.067Z,16.33
2018-12-26T02:09:49.426Z,13.80
2018-12-26T02:12:18.778Z,15.83
2018-12-26T02:14:48.136Z,14.77
2018-12-26T02:17:17.710Z,15.63
2018-12-26T02:19:47.070Z,15.60
2018-12-26T02:22:16.498Z,14.13
2018-12-26T02:24:46.106Z,10.20
2018-12-26T02:27:15.826Z,16.07
2018-12-26T02:29:45.220Z,14.57
2018-12-26T02:32:15.037Z,14.70
2018-12-26T02:34:44.420Z,14.83
2018-12-26T02:37:13.815Z,15.63
2018-12-26T02:39:54.486Z,16.43
2018-12-26T02:42:23.823Z,15.13
2018-12-26T02:48:16.641Z,11.83
2018-12-26T02:50:45.974Z,13.17
2018-12-26T02:53:15.575Z,15.93
2018-12-26T02:55:45.203Z,15.67
2018-12-26T02:58:15.101Z,14.00
2018-12-26T03:00:44.444Z,12.17
2018-12-26T03:03:14.020Z,14.77
2018-12-26T03:05:43.621Z,12.17
2018-12-26T03:08:13.441Z,9.77
2018-12-26T03:10:42.809Z,14.80
2018-12-26T03:13:13.080Z,11.77
2018-12-26T03:15:42.770Z,15.63
2018-12-26T03:18:12.719Z,9.87
2018-12-26T03:20:42.057Z,16.20
2018-12-26T03:23:11.513Z,14.63
2018-12-26T03:25:40.855Z,11.43
2018-12-26T03:28:10.692Z,13.10
2018-12-26T03:30:40.030Z,16.10
2018-12-26T03:33:10.244Z,15.03
2018-12-26T03:35:39.579Z,15.13
2018-12-26T03:38:09.944Z,15.23
2018-12-26T03:40:39.287Z,14.77
2018-12-26T03:43:09.133Z,9.30
2018-12-26T03:45:38.728Z,17.10
2018-12-26T03:48:08.808Z,16.93
2018-12-26T03:50:38.230Z,13.97
2018-12-26T03:53:07.585Z,15.83
2018-12-26T03:55:36.938Z,12.80
2018-12-26T03:58:06.275Z,15.13
2018-12-26T04:00:35.628Z,17.60
2018-12-26T04:03:05.695Z,15.70
2018-12-26T04:05:35.121Z,14.47
2018-12-26T04:08:04.626Z,18.20
2018-12-26T04:10:33.995Z,13.90
2018-12-26T04:13:03.403Z,13.70
2018-12-26T04:15:32.800Z,17.30
2018-12-26T04:18:02.199Z,13.67
2018-12-26T04:20:31.553Z,9.90
2018-12-26T04:23:00.884Z,12.90
2018-12-26T04:25:30.308Z,15.57
2018-12-26T04:27:59.649Z,17.47
2018-12-26T04:30:28.996Z,18.47
2018-12-26T04:32:58.333Z,18.40
2018-12-26T04:35:28.006Z,17.70
2018-12-26T04:37:57.344Z,17.60
2018-12-26T04:40:26.946Z,18.47
2018-12-26T04:42:57.773Z,10.80
2018-12-26T04:45:28.604Z,21.23
2018-12-26T04:47:58.001Z,13.47
2018-12-26T04:50:27.358Z,21.77
2018-12-26T04:52:56.707Z,14.00
2018-12-26T04:55:26.058Z,20.63
2018-12-26T04:57:55.708Z,20.97
2018-12-26T05:00:25.044Z,23.90
2018-12-26T05:02:54.406Z,18.67
2018-12-26T05:05:23.763Z,27.07
2018-12-26T05:07:53.530Z,25.77
2018-12-26T05:10:22.913Z,14.70
2018-12-26T05:12:52.254Z,25.10
2018-12-26T05:15:21.610Z,24.93
2018-12-26T05:17:51.249Z,27.53
2018-12-26T05:20:20.608Z,27.83
2018-12-26T05:22:49.953Z,25.90
2018-12-26T05:25:19.658Z,23.77
2018-12-26T05:27:48.994Z,22.87
2018-12-26T05:30:19.820Z,20.80
2018-12-26T05:32:49.153Z,26.90
2018-12-26T05:35:18.510Z,16.33
2018-12-26T05:37:51.853Z,27.50
2018-12-26T05:40:21.217Z,20.23
2018-12-26T05:42:50.572Z,29.13
2018-12-26T05:45:19.930Z,22.57
2018-12-26T05:47:49.279Z,24.00
2018-12-26T05:50:18.649Z,19.23
2018-12-26T05:52:48.005Z,24.30
2018-12-26T05:55:17.366Z,28.50
2018-12-26T05:57:46.700Z,18.27
2018-12-26T06:00:16.064Z,28.40
2018-12-26T06:02:45.403Z,16.10
2018-12-26T06:05:14.769Z,22.43
2018-12-26T06:07:44.109Z,29.47
2018-12-26T06:10:13.462Z,23.20
2018-12-26T06:12:43.780Z,22.13
2018-12-26T06:15:13.196Z,20.47
2018-12-26T06:17:42.569Z,26.27
2018-12-26T06:20:12.176Z,18.90
2018-12-26T06:22:41.515Z,20.40
2018-12-26T06:25:11.126Z,26.97
2018-12-26T06:27:40.717Z,28.07
2018-12-26T06:30:10.075Z,25.00
2018-12-26T06:32:39.415Z,25.00
2018-12-26T06:35:10.495Z,24.83
2018-12-26T06:37:40.886Z,19.90
2018-12-26T06:40:10.177Z,17.30
2018-12-26T06:42:39.526Z,13.70
2018-12-26T06:45:09.509Z,20.27
2018-12-26T06:47:38.847Z,23.00
2018-12-26T06:50:08.532Z,28.50
2018-12-26T06:52:37.878Z,24.90
2018-12-26T06:55:07.321Z,25.07
2018-12-26T06:57:36.649Z,22.00
2018-12-26T07:00:06.436Z,24.43
2018-12-26T07:02:35.777Z,17.70
2018-12-26T07:05:05.191Z,24.53
2018-12-26T07:07:34.607Z,29.63
2018-12-26T07:10:04.823Z,27.30
2018-12-26T07:12:35.132Z,17.73
2018-12-26T07:15:05.145Z,21.80
2018-12-26T07:17:34.512Z,25.70
2018-12-26T07:20:04.741Z,29.47
2018-12-26T07:22:34.087Z,18.57
2018-12-26T07:25:03.446Z,28.70
2018-12-26T07:27:33.279Z,16.33
2018-12-26T07:30:02.700Z,30.33
2018-12-26T07:32:32.038Z,30.60
2018-12-26T07:35:01.391Z,24.50
2018-12-26T07:37:31.675Z,29.33
2018-12-26T07:40:01.306Z,29.80
2018-12-26T07:42:30.745Z,25.93
2018-12-26T07:45:00.154Z,28.40
2018-12-26T07:47:29.493Z,30.87
2018-12-26T07:49:58.845Z,30.00
2018-12-26T07:52:28.205Z,25.53
2018-12-26T07:54:57.542Z,31.20
2018-12-26T07:57:26.899Z,25.77
2018-12-26T07:59:56.286Z,31.77
2018-12-26T08:02:25.927Z,30.33
2018-12-26T08:04:55.538Z,23.57
2018-12-26T08:07:25.852Z,25.67
2018-12-26T08:09:56.830Z,28.17
2018-12-26T08:12:27.666Z,28.70
2018-12-26T08:14:57.025Z,27.80
2018-12-26T08:17:26.838Z,34.07
2018-12-26T08:19:56.216Z,19.57
2018-12-26T08:22:25.662Z,27.50
2018-12-26T08:24:55.021Z,34.77
2018-12-26T08:27:24.380Z,25.80
2018-12-26T08:29:54.591Z,34.77
2018-12-26T08:32:24.205Z,32.13
2018-12-26T08:34:53.833Z,31.27
2018-12-26T08:37:32.209Z,17.53
2018-12-26T08:40:02.151Z,32.00
2018-12-26T08:42:31.469Z,32.27
2018-12-26T08:45:01.328Z,31.47
2018-12-26T08:47:30.682Z,32.03
2018-12-26T08:50:00.489Z,29.07
2018-12-26T08:52:29.853Z,28.23
2018-12-26T08:54:59.438Z,29.17
2018-12-26T08:57:30.689Z,31.40
2018-12-26T09:00:00.403Z,22.10
2018-12-26T09:02:30.012Z,25.13
2018-12-26T09:04:59.481Z,31.30
2018-12-26T09:07:28.842Z,27.10
2018-12-26T09:10:03.987Z,31.77
2018-12-26T09:12:33.385Z,35.33
2018-12-26T09:15:02.938Z,35.57
2018-12-26T09:17:32.308Z,42.10
2018-12-26T09:20:05.080Z,37.00
2018-12-26T09:22:34.444Z,31.70
2018-12-26T09:25:04.684Z,46.83
2018-12-26T09:27:35.585Z,33.77
2018-12-26T09:30:07.541Z,33.63
2018-12-26T09:32:36.897Z,30.00
2018-12-26T09:35:08.726Z,29.10
2018-12-26T09:37:38.091Z,33.17
2018-12-26T09:40:08.709Z,23.70
2018-12-26T09:42:38.151Z,32.60
2018-12-26T09:45:09.923Z,34.47
2018-12-26T09:47:39.522Z,32.50
2018-12-26T09:50:08.873Z,33.30
2018-12-26T09:52:38.239Z,38.43
2018-12-26T09:55:07.590Z,31.30
2018-12-26T09:57:36.957Z,34.57
2018-12-26T10:00:08.665Z,35.60
2018-12-26T10:02:38.018Z,31.00
2018-12-26T10:05:08.040Z,35.97
2018-12-26T10:07:37.393Z,38.40
2018-12-26T10:10:07.721Z,38.57
2018-12-26T10:12:37.084Z,31.10
2018-12-26T10:15:08.190Z,27.90
2018-12-26T10:17:38.626Z,53.20
2018-12-26T10:20:08.231Z,37.63
2018-12-26T10:22:37.627Z,31.60
2018-12-26T10:25:07.355Z,36.97
2018-12-26T10:27:36.718Z,28.47
2018-12-26T10:30:07.705Z,34.67
2018-12-26T10:32:37.068Z,37.47
2018-12-26T10:35:07.783Z,29.00
2018-12-26T10:37:41.147Z,38.27
2018-12-26T10:40:10.829Z,28.00
2018-12-26T10:42:40.188Z,39.13
2018-12-26T10:45:10.921Z,35.90
2018-12-26T10:47:40.277Z,32.50
2018-12-26T10:50:10.347Z,32.93
2018-12-26T10:52:39.954Z,29.60
2018-12-26T10:55:09.311Z,34.40
2018-12-26T10:57:38.691Z,45.60
2018-12-26T11:00:10.578Z,30.70
2018-12-26T11:02:39.946Z,29.73
2018-12-26T11:05:09.515Z,37.60
2018-12-26T11:07:38.875Z,40.30
2018-12-26T11:10:09.848Z,32.10
2018-12-26T11:12:39.197Z,28.03
2018-12-26T11:15:09.387Z,36.93
2018-12-26T11:17:38.965Z,37.60
2018-12-26T11:20:11.143Z,49.87
2018-12-26T11:22:40.495Z,35.90
2018-12-26T11:25:10.047Z,36.40
2018-12-26T11:27:39.398Z,26.10
2018-12-26T11:30:10.710Z,37.57
2018-12-26T11:32:40.085Z,31.00
2018-12-26T11:35:09.550Z,37.73
2018-12-26T11:38:02.925Z,23.77
2018-12-26T11:40:32.291Z,32.80
2018-12-26T11:43:01.656Z,42.27
2018-12-26T11:45:31.293Z,45.27
2018-12-26T11:48:00.629Z,42.60
2018-12-26T11:50:29.993Z,50.50
2018-12-26T11:52:59.338Z,47.20
2018-12-26T11:55:29.145Z,30.97
2018-12-26T11:57:58.494Z,49.43
2018-12-26T12:00:28.713Z,52.37
2018-12-26T12:02:58.067Z,42.70
2018-12-26T12:05:28.189Z,45.53
2018-12-26T12:07:57.557Z,47.97
2018-12-26T12:10:27.553Z,45.03
2018-12-26T12:12:56.888Z,36.23
2018-12-26T12:15:26.466Z,39.43
2018-12-26T12:17:56.058Z,31.30
2018-12-26T12:20:25.954Z,29.47
2018-12-26T12:22:55.551Z,38.40
2018-12-26T12:25:25.273Z,39.43
2018-12-26T12:27:54.624Z,29.33
2018-12-26T12:30:24.114Z,35.97
2018-12-26T12:32:53.462Z,31.40
2018-12-26T12:35:23.635Z,39.10
2018-12-26T12:37:52.986Z,37.60
2018-12-26T12:40:25.005Z,31.00
2018-12-26T12:42:54.344Z,21.57
2018-12-26T12:45:24.206Z,41.13
2018-12-26T12:47:53.555Z,38.83
2018-12-26T12:50:23.491Z,38.80
2018-12-26T12:52:52.841Z,33.23
2018-12-26T12:55:23.036Z,32.07
2018-12-26T12:57:53.313Z,28.30
2018-12-26T13:00:23.165Z,32.57
2018-12-26T13:03:00.067Z,36.20
2018-12-26T13:05:26.084Z,39.30
2018-12-26T13:07:55.667Z,36.30
2018-12-26T13:10:25.674Z,41.27
2018-12-26T13:12:57.577Z,36.20
2018-12-26T13:15:27.189Z,34.80
2018-12-26T13:17:56.542Z,37.87
2018-12-26T13:20:25.886Z,36.77
2018-12-26T13:22:55.233Z,28.27
2018-12-26T13:25:24.946Z,30.60
2018-12-26T13:27:54.312Z,35.47
2018-12-26T13:30:23.664Z,38.10
2018-12-26T13:32:53.044Z,18.73
2018-12-26T13:35:22.386Z,34.03
2018-12-26T13:37:52.015Z,34.80
2018-12-26T13:40:21.359Z,31.53
2018-12-26T13:42:50.724Z,34.33
2018-12-26T13:45:20.912Z,34.20
2018-12-26T13:47:50.674Z,36.30
2018-12-26T13:50:20.788Z,53.40
2018-12-26T13:52:50.941Z,40.60
2018-12-26T13:55:20.284Z,38.90
2018-12-26T13:57:50.742Z,36.57
2018-12-26T14:00:20.337Z,29.87
2018-12-26T14:02:50.406Z,30.07
2018-12-26T14:05:19.760Z,28.57
2018-12-26T14:07:50.061Z,35.13
2018-12-26T14:10:19.408Z,35.23
2018-12-26T14:12:49.487Z,21.20
2018-12-26T14:15:18.834Z,35.90
2018-12-26T14:17:50.043Z,36.00
2018-12-26T14:20:19.390Z,37.57
2018-12-26T14:22:49.991Z,38.33
2018-12-26T14:25:19.334Z,39.53
2018-12-26T14:27:48.944Z,39.30
2018-12-26T14:30:19.318Z,34.87
2018-12-26T14:32:49.588Z,38.63
2018-12-26T14:35:19.185Z,30.20
2018-12-26T14:37:48.687Z,33.97
2018-12-26T14:40:18.072Z,35.87
2018-12-26T14:42:47.494Z,36.00
2018-12-26T14:45:16.880Z,38.20
2018-12-26T14:47:46.286Z,33.03
2018-12-26T14:50:15.683Z,34.50
2018-12-26T14:52:45.022Z,31.00
2018-12-26T14:55:14.373Z,35.60
2018-12-26T14:57:43.738Z,39.43
2018-12-26T15:00:19.821Z,37.50
2018-12-26T15:49:54.553Z,34.30
2018-12-26T15:52:25.514Z,34.83
2018-12-26T15:54:55.823Z,37.17
2018-12-26T15:57:25.171Z,41.20
2018-12-26T15:59:54.781Z,37.60
2018-12-26T16:02:24.152Z,40.97
2018-12-26T16:04:53.517Z,33.83
2018-12-26T16:07:22.890Z,42.80
2018-12-26T16:10:05.890Z,38.17
2018-12-26T16:12:35.206Z,24.47
2018-12-26T16:15:07.146Z,37.53
2018-12-26T16:17:36.493Z,32.83
2018-12-26T16:20:07.998Z,35.80
2018-12-26T16:22:37.345Z,35.90
2018-12-26T16:25:08.241Z,36.50
2018-12-26T16:27:37.593Z,34.70
2018-12-26T16:30:08.609Z,31.40
2018-12-26T16:32:37.952Z,38.50
2018-12-26T16:35:08.124Z,36.20
2018-12-26T16:37:38.439Z,36.23
2018-12-26T16:40:08.238Z,36.70
2018-12-26T16:42:37.834Z,34.37
2018-12-26T16:45:07.195Z,36.57
2018-12-26T16:47:36.615Z,34.77
2018-12-26T16:50:07.124Z,38.57
2018-12-26T16:52:36.471Z,36.60
2018-12-26T16:55:06.367Z,32.50
2018-12-26T16:57:35.721Z,27.07
2018-12-26T17:00:09.817Z,32.83
2018-12-26T17:02:39.426Z,27.13
2018-12-26T17:05:08.893Z,29.70
2018-12-26T17:07:38.234Z,34.00
2018-12-26T17:10:10.898Z,24.43
2018-12-26T17:12:40.242Z,35.07
2018-12-26T17:15:09.607Z,33.97
2018-12-26T17:17:38.946Z,34.40
2018-12-26T17:20:08.826Z,27.00
2018-12-26T17:22:38.177Z,33.10
2018-12-26T17:25:07.537Z,34.37
2018-12-26T17:27:36.885Z,32.07
2018-12-26T17:30:07.866Z,34.30
2018-12-26T17:32:37.209Z,36.07
2018-12-26T17:35:06.821Z,33.27
2018-12-26T17:37:36.171Z,34.87
2018-12-26T17:40:07.475Z,37.03
2018-12-26T17:42:36.821Z,33.27
2018-12-26T17:45:07.286Z,36.33
2018-12-26T17:47:36.633Z,28.87
2018-12-26T17:50:35.384Z,35.27
2018-12-26T17:53:04.735Z,30.40
2018-12-26T17:55:59.656Z,34.47
2018-12-26T17:58:34.857Z,37.47
2018-12-26T18:01:35.457Z,33.30
2018-12-26T18:04:05.043Z,37.27
2018-12-26T18:06:35.290Z,36.03
2018-12-26T18:09:06.006Z,37.67
2018-12-26T18:11:36.150Z,35.70
2018-12-26T18:14:05.742Z,40.70
2018-12-26T18:16:36.121Z,42.50
2018-12-26T18:19:05.483Z,34.93
2018-12-26T18:21:34.903Z,38.27
2018-12-26T18:24:04.246Z,39.77
2018-12-26T18:26:33.600Z,33.77
2018-12-26T18:29:02.979Z,37.60
2018-12-26T18:31:32.341Z,38.50
2018-12-26T18:34:01.694Z,25.63
2018-12-26T18:36:31.090Z,29.07
2018-12-26T18:39:00.475Z,39.30
2018-12-26T18:41:29.845Z,35.70
2018-12-26T18:43:59.235Z,35.13
2018-12-26T18:46:28.580Z,38.40
2018-12-26T18:48:58.205Z,37.30
2018-12-26T18:51:27.560Z,38.30
2018-12-26T18:53:57.152Z,29.93
2018-12-26T18:56:27.511Z,38.03
2018-12-26T18:58:56.860Z,35.27
2018-12-26T19:01:30.555Z,36.80
2018-12-26T19:03:58.613Z,33.63
2018-12-26T19:06:28.213Z,36.23
2018-12-26T19:08:57.567Z,37.50
2018-12-26T19:11:26.967Z,31.33
2018-12-26T19:13:56.309Z,40.70
2018-12-26T19:16:25.659Z,37.27
2018-12-26T19:18:55.991Z,39.00
2018-12-26T19:21:25.337Z,24.73
2018-12-26T19:23:54.698Z,36.43
2018-12-26T19:26:24.612Z,36.00
2018-12-26T19:28:53.983Z,37.20
2018-12-26T19:31:23.324Z,31.20
2018-12-26T19:33:53.329Z,39.47
2018-12-26T19:36:22.954Z,36.63
2018-12-26T19:38:54.041Z,35.97
2018-12-26T19:41:26.812Z,38.37
2018-12-26T19:43:57.100Z,37.13
2018-12-26T19:46:26.449Z,37.83
2018-12-26T19:48:56.772Z,36.50
2018-12-26T19:51:26.117Z,34.63
2018-12-26T19:53:55.932Z,31.10
2018-12-26T19:56:25.280Z,32.57
2018-12-26T19:58:54.985Z,31.33
2018-12-26T20:01:24.364Z,28.20
2018-12-26T20:03:54.144Z,28.83
2018-12-26T20:06:23.490Z,28.70
2018-12-26T20:08:53.370Z,26.20
2018-12-26T20:11:22.844Z,27.53
2018-12-26T20:13:52.739Z,27.47
2018-12-26T20:16:22.131Z,25.17
2018-12-26T20:18:51.817Z,29.03
2018-12-26T20:21:21.190Z,27.13
2018-12-26T20:23:50.970Z,31.57
2018-12-26T20:26:20.634Z,28.03
2018-12-26T20:28:50.802Z,31.07
2018-12-26T20:31:20.255Z,32.00
2018-12-26T20:33:50.118Z,32.97
2018-12-26T20:36:19.775Z,33.47
2018-12-26T20:38:49.827Z,30.47
2018-12-26T20:41:19.170Z,32.27
2018-12-26T20:43:48.943Z,32.80
2018-12-26T20:46:18.281Z,33.30
2018-12-26T20:48:47.643Z,31.60
2018-12-26T20:51:17.240Z,32.80
2018-12-26T20:53:46.603Z,34.70
2018-12-26T20:56:15.953Z,35.00
2018-12-26T20:58:45.523Z,31.40
2018-12-26T21:01:14.867Z,33.97
2018-12-26T21:03:44.673Z,31.10
2018-12-26T21:06:14.071Z,33.93
2018-12-26T21:08:43.666Z,28.43
2018-12-26T21:11:13.805Z,30.87
2018-12-26T21:13:43.904Z,30.67
2018-12-26T21:16:13.741Z,32.80
2018-12-26T21:18:43.164Z,31.80
2018-12-26T21:21:13.470Z,33.20
2018-12-26T21:23:43.167Z,35.40
2018-12-26T21:26:12.735Z,31.80
2018-12-26T21:28:42.165Z,35.87
2018-12-26T21:31:12.042Z,34.10
2018-12-26T21:33:41.704Z,34.97
2018-12-26T21:36:11.627Z,34.20
2018-12-26T21:38:40.974Z,31.33
2018-12-26T21:41:11.155Z,36.67
2018-12-26T21:43:40.681Z,36.03
2018-12-26T21:46:10.114Z,36.90
2018-12-26T21:48:39.589Z,36.83
2018-12-26T21:51:08.956Z,39.60
2018-12-26T21:53:38.312Z,35.20
2018-12-26T21:56:07.702Z,28.50
2018-12-26T21:58:37.052Z,37.07
2018-12-26T22:01:06.439Z,39.43
2018-12-26T22:03:35.832Z,36.17
2018-12-26T22:06:05.217Z,38.17
2018-12-26T22:08:34.574Z,42.00
2018-12-26T22:11:03.937Z,41.83
2018-12-26T22:13:33.318Z,45.90
2018-12-26T22:16:02.785Z,38.83
2018-12-26T22:18:32.142Z,43.60
2018-12-26T22:21:01.533Z,36.13
2018-12-26T22:23:31.855Z,40.80
2018-12-26T22:26:01.215Z,43.07
2018-12-26T22:28:30.566Z,43.60
2018-12-26T22:30:59.927Z,44.07
2018-12-26T22:33:29.517Z,43.83
2018-12-26T22:35:59.123Z,42.77
2018-12-26T22:38:28.481Z,42.63
2018-12-26T22:40:58.079Z,43.23
2018-12-26T22:43:27.795Z,43.30
2018-12-26T22:45:57.136Z,42.53
2018-12-26T22:48:26.492Z,42.97
2018-12-26T22:50:56.818Z,42.90
2018-12-26T22:53:26.422Z,40.83
2018-12-26T22:55:55.765Z,42.77
2018-12-26T22:58:25.127Z,40.43
2018-12-26T23:00:54.730Z,42.30
2018-12-26T23:03:24.099Z,38.57
2018-12-26T23:05:53.442Z,39.33
2018-12-26T23:08:22.808Z,39.53
2018-12-26T23:10:52.158Z,38.57
2018-12-26T23:13:22.606Z,36.47
2018-12-26T23:15:51.945Z,37.87
2018-12-26T23:18:22.075Z,37.63
2018-12-26T23:20:51.417Z,38.47
2018-12-26T23:23:20.788Z,37.30
2018-12-26T23:25:51.181Z,38.43
2018-12-26T23:28:20.553Z,38.53
2018-12-26T23:30:49.880Z,37.73
2018-12-26T23:33:19.239Z,38.17
2018-12-26T23:35:48.579Z,35.07
2018-12-26T23:38:19.504Z,34.73
2018-12-26T23:40:49.099Z,36.47
2018-12-26T23:43:18.705Z,33.10
2018-12-26T23:45:48.052Z,34.17
2018-12-26T23:48:17.416Z,31.10
2018-12-26T23:50:46.757Z,32.40
2018-12-26T23:53:16.120Z,32.27
2018-12-26T23:55:45.452Z,32.70
2018-12-26T23:58:14.813Z,32.10
